createdAt,value
2023-06-10T00:00:29.364Z,11.25
2023-06-10T00:03:53.414Z,8.00
2023-06-10T00:06:56.470Z,8.00
2023-06-10T00:09:59.532Z,9.25
2023-06-10T00:13:03.818Z,8.50
2023-06-10T00:16:08.819Z,10.50
2023-06-10T00:19:15.427Z,9.75
2023-06-10T00:22:18.661Z,9.00
2023-06-10T00:25:21.202Z,9.50
2023-06-10T00:28:23.947Z,9.00
2023-06-10T00:31:27.864Z,8.00
2023-06-10T00:34:33.574Z,9.00
2023-06-10T00:37:38.671Z,7.00
2023-06-10T00:40:43.194Z,9.25
2023-06-10T00:43:45.809Z,8.00
2023-06-10T00:46:51.238Z,10.25
2023-06-10T00:49:54.068Z,8.75
2023-06-10T00:52:57.532Z,8.75
2023-06-10T00:56:00.840Z,9.50
2023-06-10T00:59:05.545Z,9.00
2023-06-10T01:02:08.801Z,8.00
2023-06-10T01:05:14.864Z,8.00
2023-06-10T01:08:30.762Z,8.75
2023-06-10T01:11:44.422Z,9.00
2023-06-10T01:14:47.216Z,9.00
2023-06-10T01:17:56.688Z,9.00
2023-06-10T01:20:59.450Z,8.00
2023-06-10T01:24:02.676Z,9.00
2023-06-10T01:27:10.115Z,8.25
2023-06-10T01:30:17.140Z,9.25
2023-06-10T01:33:28.166Z,9.75
2023-06-10T01:36:33.687Z,7.75
2023-06-10T01:39:40.332Z,8.75
2023-06-10T01:42:45.819Z,7.25
2023-06-10T01:45:52.551Z,8.00
2023-06-10T01:48:55.482Z,7.75
2023-06-10T01:51:58.458Z,9.25
2023-06-10T01:55:01.800Z,7.75
2023-06-10T01:58:04.401Z,7.25
2023-06-10T02:01:08.629Z,9.00
2023-06-10T02:04:13.490Z,6.50
2023-06-10T02:07:16.584Z,7.75
2023-06-10T02:10:21.929Z,8.75
2023-06-10T02:13:24.683Z,9.75
2023-06-10T02:16:33.475Z,7.25
2023-06-10T02:19:37.929Z,8.00
2023-06-10T02:22:40.434Z,7.75
2023-06-10T02:25:44.464Z,8.25
2023-06-10T02:28:46.924Z,8.25
2023-06-10T02:31:51.326Z,8.00
2023-06-10T02:34:54.560Z,8.50
2023-06-10T02:37:59.853Z,7.00
2023-06-10T02:41:02.383Z,7.50
2023-06-10T02:44:05.341Z,6.00
2023-06-10T02:47:08.319Z,7.50
2023-06-10T02:50:13.425Z,9.00
2023-06-10T02:53:27.012Z,8.25
2023-06-10T02:56:37.738Z,9.00
2023-06-10T02:59:44.024Z,9.00
2023-06-10T03:02:47.203Z,9.25
2023-06-10T03:05:50.750Z,8.00
2023-06-10T03:08:55.726Z,7.75
2023-06-10T03:11:58.239Z,10.00
2023-06-10T03:15:01.805Z,10.00
2023-06-10T03:18:08.235Z,10.00
2023-06-10T03:21:12.510Z,8.25
2023-06-10T03:24:16.514Z,6.75
2023-06-10T03:27:20.829Z,8.00
2023-06-10T03:30:29.015Z,11.00
2023-06-10T03:33:32.610Z,7.50
2023-06-10T03:36:35.127Z,8.25
2023-06-10T03:39:38.687Z,8.00
2023-06-10T03:42:45.467Z,8.25
2023-06-10T03:45:52.545Z,9.00
2023-06-10T03:48:55.616Z,7.50
2023-06-10T03:51:58.582Z,9.25
2023-06-10T03:55:01.669Z,8.00
2023-06-10T03:58:04.561Z,7.25
2023-06-10T04:01:08.599Z,5.75
2023-06-10T04:04:17.871Z,8.00
2023-06-10T04:07:21.725Z,4.00
2023-06-10T04:10:24.597Z,8.25
2023-06-10T04:13:27.557Z,8.00
2023-06-10T04:16:35.251Z,8.25
2023-06-10T04:19:38.566Z,8.00
2023-06-10T04:22:41.713Z,7.00
2023-06-10T04:25:44.408Z,8.25
2023-06-10T04:28:48.248Z,6.75
2023-06-10T04:31:51.982Z,9.25
2023-06-10T04:34:55.033Z,10.25
2023-06-10T04:37:57.718Z,8.00
2023-06-10T04:41:01.032Z,9.00
2023-06-10T04:44:06.419Z,7.00
2023-06-10T04:47:10.323Z,7.50
2023-06-10T04:50:13.336Z,7.50
2023-06-10T04:53:16.447Z,8.25
2023-06-10T04:56:23.362Z,9.75
2023-06-10T04:59:26.385Z,9.50
2023-06-10T05:02:28.828Z,8.75
2023-06-10T05:05:31.625Z,8.00
2023-06-10T05:08:34.950Z,8.00
2023-06-10T05:11:37.873Z,8.50
2023-06-10T05:14:40.409Z,9.00
2023-06-10T05:17:43.473Z,8.25
2023-06-10T05:20:45.865Z,9.50
2023-06-10T05:23:49.017Z,9.50
2023-06-10T05:26:51.644Z,10.00
2023-06-10T05:29:54.577Z,8.25
2023-06-10T05:32:57.843Z,8.75
2023-06-10T05:36:00.992Z,9.00
2023-06-10T05:39:04.309Z,8.00
2023-06-10T05:42:08.370Z,8.00
2023-06-10T05:45:13.042Z,7.75
2023-06-10T05:48:15.853Z,8.00
2023-06-10T05:51:18.347Z,8.50
2023-06-10T05:54:21.202Z,9.00
2023-06-10T05:57:23.528Z,8.50
2023-06-10T06:00:26.527Z,9.00
2023-06-10T06:03:30.092Z,9.00
2023-06-10T06:06:33.090Z,9.00
2023-06-10T06:09:35.805Z,9.00
2023-06-10T06:12:38.860Z,10.00
2023-06-10T06:15:41.352Z,8.50
2023-06-10T06:18:44.471Z,10.00
2023-06-10T06:21:46.917Z,9.00
2023-06-10T06:24:51.039Z,10.75
2023-06-10T06:27:53.585Z,7.25
2023-06-10T06:30:59.531Z,8.50
2023-06-10T06:34:02.009Z,8.00
2023-06-10T06:37:05.093Z,10.00
2023-06-10T06:40:10.526Z,8.00
2023-06-10T06:43:13.444Z,10.33
2023-06-10T06:46:26.486Z,10.00
2023-06-10T06:49:36.992Z,8.00
2023-06-10T06:52:39.497Z,10.00
2023-06-10T06:55:42.535Z,9.67
2023-06-10T06:58:45.797Z,9.67
2023-06-10T07:01:48.914Z,9.00
2023-06-10T07:04:51.531Z,10.00
2023-06-10T07:07:56.425Z,9.00
2023-06-10T07:10:58.941Z,7.00
2023-06-10T07:14:02.538Z,8.67
2023-06-10T07:17:05.179Z,8.33
2023-06-10T07:20:08.667Z,9.00
2023-06-10T07:23:11.227Z,10.00
2023-06-10T07:26:14.779Z,8.67
2023-06-10T07:29:17.412Z,9.00
2023-06-10T07:32:22.047Z,8.33
2023-06-10T07:35:26.381Z,9.00
2023-06-10T07:38:29.196Z,10.33
2023-06-10T07:41:31.638Z,10.00
2023-06-10T07:44:34.698Z,10.00
2023-06-10T07:47:38.234Z,9.33
2023-06-10T07:50:41.703Z,9.00
2023-06-10T07:53:44.546Z,10.00
2023-06-10T07:56:47.629Z,10.33
2023-06-10T07:59:50.384Z,10.00
2023-06-10T08:02:53.433Z,8.33
2023-06-10T08:05:56.058Z,9.67
2023-06-10T08:08:59.061Z,9.33
2023-06-10T08:12:01.924Z,11.00
2023-06-10T08:15:06.425Z,10.00
2023-06-10T08:18:09.111Z,8.00
2023-06-10T08:21:12.138Z,8.00
2023-06-10T08:24:16.849Z,9.00
2023-06-10T08:27:19.750Z,7.33
2023-06-10T08:30:22.177Z,8.33
2023-06-10T08:33:25.117Z,8.67
2023-06-10T08:36:28.526Z,8.67
2023-06-10T08:39:34.113Z,7.00
2023-06-10T08:42:42.199Z,7.33
2023-06-10T08:45:55.238Z,8.33
2023-06-10T08:49:05.277Z,5.00
2023-06-10T08:52:08.792Z,7.00
2023-06-10T08:55:28.881Z,6.00
2023-06-10T08:58:42.950Z,6.00
2023-06-10T09:01:46.177Z,6.33
2023-06-10T09:04:49.914Z,7.00
2023-06-10T09:07:55.234Z,7.33
2023-06-10T09:10:58.823Z,6.00
2023-06-10T09:14:01.281Z,7.00
2023-06-10T09:17:05.454Z,8.33
2023-06-10T09:20:11.170Z,8.67
2023-06-10T09:23:14.536Z,5.67
2023-06-10T09:26:18.563Z,7.00
2023-06-10T09:29:22.481Z,7.33
2023-06-10T09:32:25.394Z,7.00
2023-06-10T09:35:29.351Z,7.67
2023-06-10T09:38:35.674Z,7.67
2023-06-10T09:41:42.815Z,6.33
2023-06-10T09:44:54.640Z,6.00
2023-06-10T09:47:57.477Z,6.00
2023-06-10T09:51:00.574Z,6.00
2023-06-10T09:54:08.454Z,6.00
2023-06-10T09:57:11.658Z,5.50
2023-06-10T10:00:15.595Z,6.00
2023-06-10T10:03:24.258Z,5.00
2023-06-10T10:06:28.112Z,5.50
2023-06-10T10:09:30.686Z,4.75
2023-06-10T10:12:33.654Z,5.50
2023-06-10T10:15:38.684Z,5.75
2023-06-10T10:18:56.047Z,3.00
2023-06-10T10:22:12.995Z,5.50
2023-06-10T10:25:18.693Z,3.50
2023-06-10T10:28:23.562Z,4.25
2023-06-10T10:31:29.015Z,4.00
2023-06-10T10:34:50.919Z,4.25
2023-06-10T10:37:54.870Z,4.00
2023-06-10T10:41:01.011Z,5.25
2023-06-10T10:44:06.915Z,5.00
2023-06-10T10:47:10.770Z,4.50
2023-06-10T10:50:21.306Z,4.00
2023-06-10T10:53:27.165Z,5.75
2023-06-10T10:56:31.907Z,5.50
2023-06-10T10:59:50.359Z,5.00
2023-06-10T11:02:57.245Z,5.25
2023-06-10T11:06:02.134Z,5.00
2023-06-10T11:09:31.350Z,6.00
2023-06-10T11:12:54.569Z,7.00
2023-06-10T11:16:00.707Z,5.00
2023-06-10T11:19:03.500Z,5.50
2023-06-10T11:22:11.292Z,5.25
2023-06-10T11:25:16.964Z,6.00
2023-06-10T11:28:20.888Z,7.00
2023-06-10T11:31:27.675Z,6.50
2023-06-10T11:34:32.397Z,6.25
2023-06-10T11:37:38.050Z,6.25
2023-06-10T11:40:41.678Z,5.00
2023-06-10T11:43:45.740Z,7.00
2023-06-10T11:46:52.832Z,6.25
2023-06-10T11:49:59.055Z,7.00
2023-06-10T11:53:05.044Z,6.25
2023-06-10T11:56:07.980Z,7.50
2023-06-10T11:59:11.216Z,7.75
2023-06-10T12:02:20.660Z,6.00
2023-06-10T12:05:23.891Z,6.00
2023-06-10T12:08:27.243Z,7.50
2023-06-10T12:11:30.877Z,7.00
2023-06-10T12:14:56.607Z,7.00
2023-06-10T12:18:00.122Z,7.50
2023-06-10T12:21:16.349Z,9.00
2023-06-10T12:24:27.012Z,7.00
2023-06-10T12:27:31.119Z,8.00
2023-06-10T12:30:35.158Z,9.00
2023-06-10T12:33:38.108Z,10.33
2023-06-10T12:37:00.444Z,9.00
2023-06-10T12:40:04.447Z,8.00
2023-06-10T12:43:08.783Z,8.33
2023-06-10T12:46:15.913Z,8.00
2023-06-10T12:49:22.196Z,7.00
2023-06-10T12:52:28.887Z,10.00
2023-06-10T12:55:33.664Z,9.33
2023-06-10T12:58:36.287Z,9.00
2023-06-10T13:01:52.620Z,8.00
2023-06-10T13:05:05.386Z,9.67
2023-06-10T13:08:11.422Z,7.00
2023-06-10T13:11:14.980Z,9.00
2023-06-10T13:14:18.275Z,8.00
2023-06-10T13:17:24.050Z,7.00
2023-06-10T13:20:48.663Z,9.00
2023-06-10T13:23:52.478Z,7.33
2023-06-10T13:26:58.582Z,7.00
2023-06-10T13:30:01.425Z,8.33
2023-06-10T13:33:04.570Z,8.00
2023-06-10T13:36:07.590Z,7.67
2023-06-10T13:39:15.217Z,7.00
2023-06-10T13:43:18.510Z,6.50
2023-06-10T13:46:17.732Z,8.00
2023-06-10T13:49:23.844Z,7.00
2023-06-10T13:52:30.016Z,7.67
2023-06-10T13:55:39.128Z,8.33
2023-06-10T13:59:17.557Z,8.00
2023-06-10T14:02:28.802Z,7.00
2023-06-10T14:05:40.306Z,6.67
2023-06-10T14:08:42.796Z,7.00
2023-06-10T14:11:49.287Z,6.00
2023-06-10T14:15:04.268Z,7.00
2023-06-10T14:18:27.534Z,8.67
2023-06-10T14:22:47.786Z,6.67
2023-06-10T14:25:51.078Z,8.00
2023-06-10T14:28:53.729Z,9.00
2023-06-10T14:31:57.720Z,10.00
2023-06-10T14:35:00.199Z,8.00
2023-06-10T14:38:04.652Z,9.00
2023-06-10T14:41:08.709Z,10.00
2023-06-10T14:44:14.378Z,8.00
2023-06-10T14:47:26.012Z,10.00
2023-06-10T14:50:33.694Z,10.00
2023-06-10T14:53:36.344Z,11.00
2023-06-10T14:56:39.252Z,9.67
2023-06-10T14:59:41.811Z,11.33
2023-06-10T15:03:13.149Z,11.33
2023-06-10T15:06:29.963Z,13.00
2023-06-10T15:09:33.290Z,8.00
2023-06-10T15:12:42.059Z,10.67
2023-06-10T15:15:54.231Z,9.67
2023-06-10T15:18:59.991Z,9.67
2023-06-10T15:22:03.417Z,9.33
2023-06-10T15:28:21.433Z,9.67
2023-06-10T15:31:26.975Z,8.67
2023-06-10T15:34:29.869Z,9.00
2023-06-10T15:37:32.528Z,11.00
2023-06-10T15:40:36.444Z,9.00
2023-06-10T15:43:39.418Z,9.33
2023-06-10T15:46:43.699Z,7.67
2023-06-10T15:50:07.683Z,10.33
2023-06-10T15:53:10.988Z,9.67
2023-06-10T15:56:14.062Z,10.67
2023-06-10T15:59:17.281Z,10.33
2023-06-10T16:02:20.058Z,8.33
2023-06-10T16:05:30.534Z,11.00
2023-06-10T16:08:35.955Z,11.33
2023-06-10T16:11:38.823Z,9.67
2023-06-10T16:14:41.404Z,10.33
2023-06-10T16:17:44.556Z,11.00
2023-06-10T16:20:47.258Z,10.33
2023-06-10T16:23:58.710Z,11.00
2023-06-10T16:27:04.469Z,10.33
2023-06-10T16:30:08.206Z,11.33
2023-06-10T16:33:10.867Z,11.00
2023-06-10T16:36:14.452Z,11.33
2023-06-10T16:39:17.094Z,9.67
2023-06-10T16:42:20.045Z,9.00
2023-06-10T16:45:35.489Z,9.67
2023-06-10T16:48:38.777Z,11.33
2023-06-10T16:51:46.824Z,11.00
2023-06-10T16:54:53.055Z,11.33
2023-06-10T16:58:06.554Z,12.00
2023-06-10T17:01:10.358Z,11.33
2023-06-10T17:04:13.700Z,11.33
2023-06-10T17:07:18.133Z,10.33
2023-06-10T17:10:23.749Z,10.00
2023-06-10T17:13:26.759Z,12.33
2023-06-10T17:16:31.258Z,9.00
2023-06-10T17:19:35.319Z,10.00
2023-06-10T17:22:40.674Z,11.67
2023-06-10T17:25:43.704Z,11.00
2023-06-10T17:28:46.680Z,11.00
2023-06-10T17:31:50.174Z,10.67
2023-06-10T17:34:53.796Z,10.67
2023-06-10T17:37:58.741Z,9.67
2023-06-10T17:41:02.340Z,9.00
2023-06-10T17:44:06.242Z,11.00
2023-06-10T17:47:20.521Z,8.67
2023-06-10T17:50:28.169Z,10.00
2023-06-10T17:53:31.032Z,8.67
2023-06-10T17:56:36.723Z,10.00
2023-06-10T17:59:39.407Z,9.00
2023-06-10T18:02:42.400Z,10.00
2023-06-10T18:05:45.537Z,10.00
2023-06-10T18:08:48.334Z,12.00
2023-06-10T18:11:51.123Z,9.00
2023-06-10T18:15:00.067Z,9.33
2023-06-10T18:18:03.916Z,10.00
2023-06-10T18:21:07.787Z,9.67
2023-06-10T18:24:11.646Z,10.00
2023-06-10T18:27:17.126Z,10.33
2023-06-10T18:30:49.683Z,10.00
2023-06-10T18:34:18.800Z,10.67
2023-06-10T18:37:51.676Z,10.33
2023-06-10T18:41:14.371Z,8.67
2023-06-10T18:44:24.629Z,10.33
2023-06-10T18:47:28.003Z,9.33
2023-06-10T18:50:38.299Z,9.67
2023-06-10T18:53:48.124Z,10.67
2023-06-10T18:56:50.835Z,10.00
2023-06-10T18:59:54.103Z,10.67
2023-06-10T19:02:59.668Z,11.00
2023-06-10T19:06:12.153Z,9.67
2023-06-10T19:10:36.623Z,10.00
2023-06-10T19:13:39.624Z,9.00
2023-06-10T19:16:45.258Z,10.00
2023-06-10T19:19:48.381Z,9.33
2023-06-10T19:22:50.901Z,10.00
2023-06-10T19:25:53.961Z,9.00
2023-06-10T19:28:56.843Z,8.33
2023-06-10T19:32:01.177Z,7.67
2023-06-10T19:35:05.033Z,10.00
2023-06-10T19:38:08.137Z,9.33
2023-06-10T19:41:10.816Z,10.00
2023-06-10T19:44:13.773Z,9.33
2023-06-10T19:47:16.433Z,9.67
2023-06-10T19:50:22.708Z,8.67
2023-06-10T19:53:33.427Z,10.00
2023-06-10T19:56:38.539Z,10.00
2023-06-10T19:59:41.807Z,10.00
2023-06-10T20:02:44.741Z,9.00
2023-06-10T20:05:47.441Z,10.67
2023-06-10T20:08:51.130Z,9.00
2023-06-10T20:11:53.801Z,10.00
2023-06-10T20:14:56.625Z,10.00
2023-06-10T20:17:59.341Z,10.00
2023-06-10T20:21:02.982Z,9.00
2023-06-10T20:24:07.490Z,8.67
2023-06-10T20:27:11.514Z,9.00
2023-06-10T20:30:15.780Z,11.00
2023-06-10T20:33:19.007Z,10.00
2023-06-10T20:36:22.897Z,6.67
2023-06-10T20:39:26.606Z,9.00
2023-06-10T20:42:29.474Z,9.00
2023-06-10T20:45:32.322Z,10.25
2023-06-10T20:48:34.885Z,10.00
2023-06-10T20:51:41.012Z,9.50
2023-06-10T20:54:43.621Z,10.00
2023-06-10T20:57:46.650Z,10.50
2023-06-10T21:00:49.452Z,11.75
2023-06-10T21:03:53.247Z,10.00
2023-06-10T21:06:55.934Z,9.75
2023-06-10T21:09:58.795Z,11.00
2023-06-10T21:13:01.421Z,10.00
2023-06-10T21:16:04.604Z,10.50
2023-06-10T21:19:07.307Z,9.00
2023-06-10T21:22:10.180Z,11.00
2023-06-10T21:25:12.893Z,10.00
2023-06-10T21:28:16.349Z,11.00
2023-06-10T21:31:19.800Z,9.25
2023-06-10T21:34:22.810Z,9.00
2023-06-10T21:37:25.372Z,10.00
2023-06-10T21:40:28.327Z,10.00
2023-06-10T21:43:30.921Z,10.50
2023-06-10T21:46:34.653Z,9.00
2023-06-10T21:49:37.192Z,9.50
2023-06-10T21:52:40.169Z,10.00
2023-06-10T21:55:42.750Z,8.00
2023-06-10T21:58:49.558Z,10.75
2023-06-10T22:01:52.318Z,9.25
2023-06-10T22:04:58.429Z,7.00
2023-06-10T22:08:01.731Z,9.25
2023-06-10T22:11:04.696Z,10.50
2023-06-10T22:14:07.802Z,7.50
2023-06-10T22:17:10.853Z,10.00
2023-06-10T22:20:13.805Z,8.75
2023-06-10T22:23:23.734Z,9.75
2023-06-10T22:26:36.850Z,9.75
2023-06-10T22:29:50.004Z,9.00
2023-06-10T22:32:52.673Z,11.00
2023-06-10T22:35:55.640Z,9.50
2023-06-10T22:38:58.177Z,11.00
2023-06-10T22:42:00.928Z,10.00
2023-06-10T22:45:04.510Z,10.75
2023-06-10T22:48:07.463Z,9.75
2023-06-10T22:51:10.086Z,10.50
2023-06-10T22:54:15.403Z,10.00
2023-06-10T22:57:18.136Z,11.00
2023-06-10T23:00:21.250Z,9.75
2023-06-10T23:03:23.810Z,10.00
2023-06-10T23:06:26.650Z,10.75
2023-06-10T23:09:29.309Z,10.00
2023-06-10T23:12:32.499Z,10.00
2023-06-10T23:15:35.175Z,11.00
2023-06-10T23:18:41.439Z,10.25
2023-06-10T23:21:54.583Z,8.00
2023-06-10T23:24:58.289Z,5.00
2023-06-10T23:28:00.907Z,10.50
2023-06-10T23:31:03.885Z,10.25
2023-06-10T23:34:06.566Z,10.50
2023-06-10T23:37:12.196Z,12.50
2023-06-10T23:40:16.582Z,13.00
2023-06-10T23:43:19.502Z,11.75
2023-06-10T23:46:22.169Z,9.25
2023-06-10T23:49:25.037Z,10.50
2023-06-10T23:52:27.457Z,8.00
2023-06-10T23:55:30.541Z,10.50
2023-06-10T23:58:33.243Z,11.25
